Time;durP1;ratioP1;P1;durP2;ratioP2;P2;SDS_P1;SDS_P2;PMS_P1;PMS_P2;Temp;Humidity;BMP_temperature;BMP_pressure;BME280_temperature;BME280_humidity;BME280_pressure;Samples;Min_cycle;Max_cycle;Signal;HPM_P1;HPM_P2
2022/09/06 00:00:40;;;;;;;1.70;0.53;;;17.20;99.90;;;;;;5012824;28;20648;-86
2022/09/06 00:03:07;;;;;;;0.87;0.50;;;17.30;99.90;;;;;;5016225;28;20805;-86
2022/09/06 00:05:32;;;;;;;1.70;0.40;;;17.30;99.90;;;;;;4998533;28;20760;-86
2022/09/06 00:07:59;;;;;;;1.90;0.43;;;17.30;99.90;;;;;;5016376;28;20430;-85
2022/09/06 00:10:25;;;;;;;2.00;0.47;;;17.20;99.90;;;;;;5018993;28;20193;-84
2022/09/06 00:12:51;;;;;;;0.90;0.50;;;17.30;99.90;;;;;;5029620;28;20447;-84
2022/09/06 00:15:17;;;;;;;1.00;0.90;;;17.30;99.90;;;;;;5009166;28;20437;-84
2022/09/06 00:17:46;;;;;;;2.80;0.70;;;17.30;99.90;;;;;;4998469;28;20226;-85
2022/09/06 00:20:12;;;;;;;1.73;0.70;;;17.30;99.90;;;;;;5014666;28;20634;-86
2022/09/06 00:22:37;;;;;;;0.90;0.43;;;17.20;99.90;;;;;;5015629;28;20521;-84
2022/09/06 00:25:05;;;;;;;1.23;0.23;;;17.20;99.90;;;;;;5015280;28;20185;-85
2022/09/06 00:27:31;;;;;;;1.87;0.63;;;17.20;99.90;;;;;;5015465;28;20610;-85
2022/09/06 00:29:57;;;;;;;1.37;0.67;;;17.30;99.90;;;;;;4997932;28;20591;-85
2022/09/06 00:32:22;;;;;;;1.43;0.70;;;17.30;99.90;;;;;;5015744;28;20506;-84
2022/09/06 00:34:48;;;;;;;2.40;0.70;;;17.20;99.90;;;;;;5015470;28;20660;-87
2022/09/06 00:37:13;;;;;;;2.90;0.73;;;17.20;99.90;;;;;;5015404;28;20177;-86
2022/09/06 00:39:39;;;;;;;1.13;0.60;;;17.20;99.90;;;;;;4997923;28;20203;-86
2022/09/06 00:42:12;;;;;;;1.33;0.50;;;17.10;99.90;;;;;;4998067;28;20570;-86
2022/09/06 00:44:38;;;;;;;1.70;0.67;;;17.10;99.90;;;;;;5015425;28;20217;-85
2022/09/06 00:47:04;;;;;;;0.57;0.23;;;17.10;99.90;;;;;;4998051;28;20407;-85
2022/09/06 00:49:45;;;;;;;1.10;0.30;;;17.10;99.90;;;;;;5015488;28;20419;-85
2022/09/06 00:52:14;;;;;;;1.03;0.43;;;17.10;99.90;;;;;;4997865;28;20928;-84
2022/09/06 00:54:41;;;;;;;0.60;0.33;;;17.00;99.90;;;;;;4997332;28;20507;-87
2022/09/06 00:57:06;;;;;;;0.77;0.47;;;17.00;99.90;;;;;;5015448;28;20418;-88
2022/09/06 00:59:37;;;;;;;0.90;0.40;;;17.00;99.90;;;;;;5015283;28;20425;-87
2022/09/06 01:02:04;;;;;;;0.83;0.47;;;17.00;99.90;;;;;;5015049;28;20515;-85
2022/09/06 01:04:30;;;;;;;1.20;0.27;;;16.90;99.90;;;;;;5015160;28;20472;-85
2022/09/06 01:07:13;;;;;;;2.63;0.40;;;16.90;99.90;;;;;;5014996;28;20854;-85
2022/09/06 01:10:06;;;;;;;1.20;0.50;;;16.90;99.90;;;;;;5014819;28;20951;-85
2022/09/06 01:12:54;;;;;;;1.43;0.50;;;16.90;99.90;;;;;;4996569;28;20448;-84
2022/09/06 01:15:40;;;;;;;2.00;0.20;;;16.80;99.90;;;;;;5015045;28;20459;-86
2022/09/06 01:18:33;;;;;;;3.83;1.20;;;16.90;99.90;;;;;;5014845;28;20460;-87
2022/09/06 01:21:17;;;;;;;1.50;0.47;;;16.90;99.90;;;;;;5013756;28;20431;-86
2022/09/06 01:24:03;;;;;;;0.80;0.47;;;16.90;99.90;;;;;;5014187;28;20525;-85
2022/09/06 01:26:50;;;;;;;1.10;0.40;;;16.90;99.90;;;;;;5014377;28;20413;-85
2022/09/06 01:29:31;;;;;;;2.10;0.60;;;16.90;99.90;;;;;;4996971;28;20510;-84
2022/09/06 01:32:05;;;;;;;1.20;0.63;;;16.90;95.10;;;;;;5014613;28;20421;-84
2022/09/06 01:34:37;;;;;;;2.53;0.70;;;16.90;80.80;;;;;;5014170;28;20420;-86
2022/09/06 01:37:11;;;;;;;1.40;0.33;;;16.90;64.90;;;;;;5014380;28;20478;-85
2022/09/06 01:39:39;;;;;;;1.30;0.30;;;16.90;73.00;;;;;;4996478;28;20452;-85
2022/09/06 01:42:12;;;;;;;0.60;0.30;;;16.90;85.90;;;;;;4996754;28;20443;-85
2022/09/06 01:44:44;;;;;;;0.90;0.30;;;16.80;72.20;;;;;;5013985;28;20825;-85
2022/09/06 01:47:21;;;;;;;1.53;0.87;;;16.80;51.00;;;;;;4996650;28;20512;-85
2022/09/06 01:50:18;;;;;;;0.90;0.30;;;16.90;33.90;;;;;;4996599;28;20437;-86
2022/09/06 01:53:02;;;;;;;0.80;0.40;;;16.90;25.00;;;;;;4995829;28;20432;-86
2022/09/06 01:55:43;;;;;;;0.93;0.20;;;16.90;20.40;;;;;;4996377;28;20426;-85
2022/09/06 01:58:28;;;;;;;0.97;0.30;;;16.80;20.00;;;;;;5012760;28;20425;-84
2022/09/06 02:01:17;;;;;;;1.03;0.53;;;16.80;18.80;;;;;;5012799;28;20924;-87
2022/09/06 02:03:56;;;;;;;1.50;0.40;;;16.90;6.50;;;;;;5014005;28;20586;-86
2022/09/06 02:06:29;;;;;;;1.07;0.67;;;16.90;1.80;;;;;;5015867;28;20406;-84
2022/09/06 02:09:11;;;;;;;1.40;0.53;;;16.90;1.00;;;;;;5013609;28;20420;-84
2022/09/06 02:11:47;;;;;;;1.30;0.50;;;16.80;1.00;;;;;;5013910;28;20411;-84
2022/09/06 02:14:19;;;;;;;0.80;0.37;;;16.80;6.10;;;;;;5013794;28;20421;-85
2022/09/06 02:16:51;;;;;;;1.13;0.40;;;16.80;1.00;;;;;;5013662;28;20449;-85
2022/09/06 02:19:26;;;;;;;1.80;0.83;;;16.80;1.00;;;;;;5013755;28;21000;-84
2022/09/06 02:21:56;;;;;;;1.00;0.33;;;16.70;1.00;;;;;;5013722;28;20409;-86
2022/09/06 02:24:27;;;;;;;1.40;0.40;;;16.80;1.00;;;;;;5012979;28;20472;-87
2022/09/06 02:26:53;;;;;;;0.90;0.50;;;16.80;1.00;;;;;;5013528;28;20412;-84
2022/09/06 02:29:19;;;;;;;1.27;0.50;;;16.80;1.00;;;;;;5002072;28;20420;-84
2022/09/06 02:31:48;;;;;;;2.07;0.70;;;16.80;1.00;;;;;;5020607;28;20456;-86
2022/09/06 02:34:17;;;;;;;2.50;0.60;;;16.90;1.00;;;;;;5007450;28;20179;-88
2022/09/06 02:36:42;;;;;;;1.73;0.37;;;16.80;1.00;;;;;;5024726;28;20421;-87
2022/09/06 02:39:08;;;;;;;1.87;0.30;;;16.90;1.00;;;;;;5021990;28;20426;-86
2022/09/06 02:41:34;;;;;;;1.33;0.77;;;16.80;1.00;;;;;;5004273;28;20510;-87
2022/09/06 02:44:00;;;;;;;0.80;0.50;;;16.80;1.00;;;;;;5000599;28;20499;-86
2022/09/06 02:46:29;;;;;;;1.17;0.33;;;16.70;1.00;;;;;;5022416;28;20209;-86
2022/09/06 02:48:58;;;;;;;0.90;0.43;;;16.70;1.00;;;;;;5017273;28;20184;-86
2022/09/06 02:51:23;;;;;;;0.77;0.30;;;16.70;1.00;;;;;;4998484;28;20454;-86
2022/09/06 02:53:49;;;;;;;0.70;0.30;;;16.70;1.00;;;;;;5015334;28;20894;-88
2022/09/06 02:56:15;;;;;;;0.83;0.50;;;16.70;1.00;;;;;;4996684;28;20180;-89
2022/09/06 02:58:40;;;;;;;3.00;0.60;;;16.70;1.00;;;;;;4995977;28;20182;-88
2022/09/06 03:01:06;;;;;;;1.80;0.67;;;16.60;1.00;;;;;;5013153;28;20177;-86
2022/09/06 03:03:31;;;;;;;0.87;0.30;;;16.50;1.00;;;;;;5012983;28;20213;-88
2022/09/06 03:05:57;;;;;;;0.90;0.60;;;16.60;1.00;;;;;;4995516;28;20639;-87
2022/09/06 03:08:25;;;;;;;1.50;0.63;;;16.60;1.00;;;;;;5013109;28;20255;-86
2022/09/06 03:10:55;;;;;;;1.10;0.40;;;16.50;1.00;;;;;;5011794;28;20172;-85
2022/09/06 03:13:22;;;;;;;1.20;0.80;;;16.50;1.00;;;;;;5012921;28;20453;-87
2022/09/06 03:15:53;;;;;;;0.80;0.30;;;16.50;1.00;;;;;;5011738;28;20423;-89
2022/09/06 03:18:18;;;;;;;2.60;0.60;;;16.50;1.00;;;;;;5011859;28;20472;-88
2022/09/06 03:20:44;;;;;;;1.40;0.70;;;16.50;1.00;;;;;;5013163;28;20417;-87
2022/09/06 03:23:09;;;;;;;1.07;0.40;;;16.40;1.00;;;;;;5012700;28;20269;-87
2022/09/06 03:25:35;;;;;;;5.63;0.73;;;16.40;1.00;;;;;;5012938;28;20188;-86
2022/09/06 03:28:01;;;;;;;1.73;0.23;;;16.40;1.00;;;;;;4995556;28;20191;-84
2022/09/06 03:30:29;;;;;;;1.30;0.40;;;16.30;1.00;;;;;;5013147;28;20645;-88
2022/09/06 03:32:55;;;;;;;1.47;0.53;;;16.30;1.00;;;;;;5013072;28;20429;-89
2022/09/06 03:35:20;;;;;;;1.77;0.53;;;16.30;1.00;;;;;;5013098;28;20448;-87
2022/09/06 03:37:46;;;;;;;1.20;0.67;;;16.20;1.00;;;;;;5016604;28;20171;-88
2022/09/06 03:40:11;;;;;;;1.00;0.20;;;16.20;1.00;;;;;;5016626;28;20179;-88
2022/09/06 03:42:37;;;;;;;1.50;0.30;;;16.30;1.00;;;;;;4998551;28;20637;-86
2022/09/06 03:45:03;;;;;;;0.80;0.20;;;16.30;1.00;;;;;;5016800;28;20191;-86
2022/09/06 03:47:28;;;;;;;0.70;0.20;;;16.20;1.00;;;;;;5015538;28;20184;-86
2022/09/06 03:49:54;;;;;;;1.20;0.53;;;16.20;1.00;;;;;;5016686;28;20176;-87
2022/09/06 03:52:19;;;;;;;2.60;0.60;;;16.20;1.00;;;;;;4998993;28;20173;-88
2022/09/06 03:54:45;;;;;;;0.80;0.23;;;16.10;1.00;;;;;;5016625;28;20175;-87
2022/09/06 03:57:10;;;;;;;1.23;0.60;;;16.10;1.00;;;;;;5016564;28;20228;-88
2022/09/06 03:59:36;;;;;;;0.60;0.20;;;16.00;1.00;;;;;;4998888;28;20549;-88
2022/09/06 04:02:02;;;;;;;1.43;0.40;;;16.00;1.00;;;;;;5016610;28;20195;-87
2022/09/06 04:04:28;;;;;;;1.00;0.40;;;16.00;1.00;;;;;;5016363;28;20556;-87
2022/09/06 04:06:53;;;;;;;1.33;0.50;;;15.90;1.00;;;;;;4998849;28;20411;-87
2022/09/06 04:09:19;;;;;;;0.60;0.30;;;15.80;1.00;;;;;;4998405;28;20178;-87
2022/09/06 04:11:44;;;;;;;2.20;0.30;;;15.80;1.00;;;;;;5016371;28;20172;-92
2022/09/06 04:14:10;;;;;;;3.07;0.30;;;15.70;1.00;;;;;;5016255;28;20176;-88
2022/09/06 04:16:35;;;;;;;1.17;0.60;;;15.80;1.00;;;;;;5064891;23;20257;-88
2022/09/06 04:19:02;;;;;;;0.60;0.20;;;15.80;1.00;;;;;;5055882;28;20183;-88
2022/09/06 04:21:28;;;;;;;1.00;0.33;;;15.70;1.00;;;;;;5056018;28;20240;-87
2022/09/06 04:23:53;;;;;;;0.70;0.20;;;15.80;1.00;;;;;;5055081;28;20559;-87
2022/09/06 04:26:28;;;;;;;1.00;0.30;;;15.70;1.00;;;;;;5055884;28;20164;-86
2022/09/06 04:28:54;;;;;;;1.77;0.50;;;15.70;1.00;;;;;;5037879;28;20665;-88
2022/09/06 04:31:19;;;;;;;0.70;0.20;;;15.60;1.00;;;;;;5055724;28;20409;-88
2022/09/06 04:33:44;;;;;;;0.77;0.20;;;15.60;1.00;;;;;;5037792;28;20236;-88
2022/09/06 04:36:11;;;;;;;0.87;0.30;;;15.60;1.00;;;;;;5055445;28;20181;-87
2022/09/06 04:38:42;;;;;;;0.60;0.20;;;15.50;1.00;;;;;;5055270;28;20177;-89
2022/09/06 04:41:12;;;;;;;0.67;0.30;;;15.50;1.00;;;;;;5037527;28;20426;-88
2022/09/06 04:43:41;;;;;;;1.13;0.20;;;15.50;1.00;;;;;;5055187;28;20477;-88
2022/09/06 04:46:19;;;;;;;0.80;0.30;;;15.50;1.00;;;;;;5054294;28;21056;-87
2022/09/06 04:48:45;;;;;;;1.20;0.30;;;15.50;1.00;;;;;;5054116;28;20410;-88
2022/09/06 04:51:11;;;;;;;1.73;0.30;;;15.50;1.00;;;;;;5055339;28;20543;-88
2022/09/06 04:53:36;;;;;;;1.30;0.23;;;15.50;1.00;;;;;;5054613;28;20422;-88
2022/09/06 04:56:02;;;;;;;2.77;0.70;;;15.60;1.00;;;;;;5055280;28;20657;-88
2022/09/06 04:58:27;;;;;;;1.10;0.67;;;15.60;1.00;;;;;;5055019;28;20189;-87
2022/09/06 05:00:53;;;;;;;1.13;0.20;;;15.50;1.00;;;;;;5037180;28;20201;-88
2022/09/06 05:03:19;;;;;;;0.97;0.30;;;15.50;1.00;;;;;;5054765;28;20202;-89
2022/09/06 05:05:44;;;;;;;0.63;0.20;;;15.50;1.00;;;;;;5037282;28;20171;-88
2022/09/06 05:08:10;;;;;;;1.27;0.27;;;15.50;1.00;;;;;;5054694;28;20848;-89
2022/09/06 05:10:35;;;;;;;0.40;0.20;;;15.50;1.00;;;;;;5055062;28;20167;-88
2022/09/06 05:13:01;;;;;;;1.00;0.20;;;15.50;1.00;;;;;;5053583;28;20591;-88
2022/09/06 05:15:26;;;;;;;0.80;0.50;;;15.50;1.00;;;;;;5054633;28;20180;-89
2022/09/06 05:17:52;;;;;;;0.70;0.30;;;15.50;1.00;;;;;;5054540;28;20340;-89
2022/09/06 05:20:18;;;;;;;0.70;0.53;;;15.50;1.00;;;;;;5054601;28;20545;-89
2022/09/06 05:22:52;;;;;;;1.93;0.40;;;15.50;1.00;;;;;;5054431;28;20174;-88
2022/09/06 05:25:17;;;;;;;1.40;0.20;;;15.60;1.00;;;;;;5053396;28;20435;-88
2022/09/06 05:27:46;;;;;;;1.17;0.50;;;15.60;1.00;;;;;;5035609;28;20816;-89
2022/09/06 05:30:12;;;;;;;0.80;0.30;;;15.50;1.00;;;;;;5036549;28;20175;-87
2022/09/06 05:32:37;;;;;;;1.07;0.40;;;15.50;1.00;;;;;;5047455;28;20426;-90
2022/09/06 05:35:03;;;;;;;0.50;0.20;;;15.50;1.00;;;;;;5018648;28;20509;-89
2022/09/06 05:37:29;;;;;;;0.40;0.20;;;15.60;1.00;;;;;;5032279;28;20169;-89
2022/09/06 05:39:54;;;;;;;1.00;0.30;;;15.60;1.00;;;;;;5017046;28;20207;-88
2022/09/06 05:42:20;;;;;;;0.63;0.40;;;15.60;1.00;;;;;;5034955;28;20171;-88
2022/09/06 05:44:45;;;;;;;0.97;0.30;;;15.60;1.00;;;;;;5035165;28;20298;-85
2022/09/06 05:47:10;;;;;;;1.20;0.40;;;15.60;1.00;;;;;;5034981;28;20596;-88
2022/09/06 05:49:36;;;;;;;0.60;0.30;;;15.60;1.00;;;;;;5034644;28;20186;-89
2022/09/06 05:52:02;;;;;;;0.60;0.20;;;15.60;1.00;;;;;;5017142;28;20642;-86
2022/09/06 05:54:27;;;;;;;2.20;0.37;;;15.60;1.00;;;;;;5016761;28;20176;-88
2022/09/06 05:56:52;;;;;;;0.60;0.40;;;15.70;1.00;;;;;;5034851;28;20575;-88
2022/09/06 05:59:18;;;;;;;2.50;0.40;;;15.70;1.00;;;;;;5033775;28;20168;-88
2022/09/06 06:01:49;;;;;;;1.10;0.30;;;15.70;1.00;;;;;;5034064;28;20171;-88
2022/09/06 06:04:17;;;;;;;1.03;0.20;;;15.80;1.00;;;;;;5034188;28;20237;-88
2022/09/06 06:06:43;;;;;;;2.73;0.27;;;15.80;1.00;;;;;;5026635;28;20473;-88
2022/09/06 06:09:09;;;;;;;0.63;0.20;;;15.80;1.00;;;;;;5016323;28;20459;-88
2022/09/06 06:11:47;;;;;;;0.50;0.20;;;15.90;1.00;;;;;;5034231;28;20981;-85
2022/09/06 06:14:13;;;;;;;0.90;0.23;;;15.90;1.00;;;;;;5016131;28;20191;-84
2022/09/06 06:16:38;;;;;;;2.00;0.30;;;16.00;1.00;;;;;;5033722;28;20797;-87
2022/09/06 06:19:04;;;;;;;0.87;0.37;;;16.00;1.00;;;;;;5033547;28;20238;-86
2022/09/06 06:21:31;;;;;;;2.30;0.37;;;16.10;1.00;;;;;;5015889;28;20255;-85
2022/09/06 06:24:01;;;;;;;0.60;0.20;;;16.10;1.00;;;;;;5033553;28;20217;-89
2022/09/06 06:26:30;;;;;;;1.37;0.30;;;16.10;1.00;;;;;;5016167;28;20419;-87
2022/09/06 06:28:57;;;;;;;1.13;0.30;;;16.20;1.00;;;;;;5016373;28;20428;-85
2022/09/06 06:31:23;;;;;;;0.87;0.30;;;16.20;1.00;;;;;;5033638;28;21165;-88
2022/09/06 06:33:49;;;;;;;1.07;0.37;;;16.10;1.00;;;;;;5033600;28;20415;-84
2022/09/06 06:36:14;;;;;;;1.17;0.30;;;16.20;1.00;;;;;;5033685;28;20225;-85
2022/09/06 06:38:42;;;;;;;1.73;0.40;;;16.30;1.00;;;;;;5033207;28;20470;-87
2022/09/06 06:41:10;;;;;;;1.40;0.20;;;16.40;1.00;;;;;;5033228;28;20343;-86
2022/09/06 06:43:36;;;;;;;0.47;0.20;;;16.60;1.00;;;;;;5015575;28;20473;-86
2022/09/06 06:46:07;;;;;;;3.23;0.37;;;16.80;1.00;;;;;;5033283;28;20532;-84
2022/09/06 06:48:33;;;;;;;0.80;0.20;;;16.80;1.00;;;;;;5015995;28;20766;-85
2022/09/06 06:50:58;;;;;;;0.87;0.27;;;16.80;1.00;;;;;;5033379;28;20409;-85
2022/09/06 06:53:24;;;;;;;1.13;0.20;;;16.90;1.00;;;;;;5032922;28;20500;-87
2022/09/06 06:55:49;;;;;;;1.00;0.40;;;16.80;1.00;;;;;;5033242;28;20228;-82
2022/09/06 06:58:16;;;;;;;1.33;0.43;;;16.80;1.00;;;;;;5033242;28;20176;-85
2022/09/06 07:00:48;;;;;;;3.17;0.93;;;16.80;1.00;;;;;;5033562;28;20176;-86
2022/09/06 07:03:13;;;;;;;0.83;0.20;;;16.90;1.00;;;;;;5033847;28;20809;-85
2022/09/06 07:05:42;;;;;;;0.60;0.20;;;16.70;1.00;;;;;;5033178;28;20509;-88
2022/09/06 07:08:08;;;;;;;0.73;0.30;;;16.80;1.00;;;;;;5015153;28;20201;-87
2022/09/06 07:10:34;;;;;;;1.20;0.30;;;16.70;1.00;;;;;;5036038;28;20420;-90
2022/09/06 07:13:00;;;;;;;1.27;0.20;;;16.90;1.00;;;;;;5040261;28;21003;-92
2022/09/06 07:15:25;;;;;;;1.30;0.37;;;16.80;1.00;;;;;;5018899;28;20237;-90
2022/09/06 07:17:53;;;;;;;1.03;0.23;;;16.90;1.00;;;;;;5020737;28;20527;-89
2022/09/06 07:20:21;;;;;;;0.77;0.40;;;16.90;1.00;;;;;;5024165;28;20171;-88
2022/09/06 07:22:56;;;;;;;0.83;0.30;;;16.70;1.00;;;;;;5021592;28;20421;-94
2022/09/06 07:25:22;;;;;;;0.80;0.23;;;16.60;1.00;;;;;;5040746;28;20802;-93
2022/09/06 07:27:48;;;;;;;1.00;0.30;;;16.70;1.00;;;;;;5030273;28;20449;-93
2022/09/06 07:30:13;;;;;;;0.60;0.30;;;16.70;1.00;;;;;;5030881;28;20627;-94
2022/09/06 07:32:39;;;;;;;0.90;0.20;;;16.70;1.00;;;;;;5027481;28;20176;-93
2022/09/06 07:35:05;;;;;;;1.13;0.40;;;16.70;1.00;;;;;;5027979;28;20176;-95
2022/09/06 07:37:30;;;;;;;1.83;0.53;;;16.70;1.00;;;;;;5029240;28;20256;-96
2022/09/06 07:39:55;;;;;;;0.97;0.30;;;16.70;1.00;;;;;;5027775;28;20453;-94
2022/09/06 07:42:21;;;;;;;0.80;0.40;;;16.80;1.00;;;;;;5022199;28;20191;-94
2022/09/06 07:44:46;;;;;;;0.87;0.33;;;16.90;1.00;;;;;;5021565;28;20211;-95
2022/09/06 07:47:14;;;;;;;1.23;0.33;;;17.10;1.00;;;;;;5021738;28;20174;-95
2022/09/06 07:49:40;;;;;;;1.10;0.20;;;17.10;1.00;;;;;;5024655;28;20667;-94
2022/09/06 07:52:05;;;;;;;1.07;0.30;;;17.00;1.00;;;;;;5043091;28;20434;-94
2022/09/06 07:54:32;;;;;;;0.67;0.40;;;17.10;1.00;;;;;;5025470;28;20420;-95
2022/09/06 07:56:57;;;;;;;1.03;0.20;;;17.10;1.00;;;;;;5028256;28;20167;-94
2022/09/06 07:59:23;;;;;;;0.60;0.23;;;17.20;1.00;;;;;;5027091;28;20493;-94
2022/09/06 08:01:49;;;;;;;1.63;0.93;;;17.20;1.00;;;;;;5030388;28;20183;-94
2022/09/06 08:04:14;;;;;;;1.47;0.20;;;17.40;1.00;;;;;;5026398;28;20224;-92
2022/09/06 08:06:42;;;;;;;1.23;0.60;;;17.60;1.00;;;;;;5037145;28;20176;-90
2022/09/06 08:09:09;;;;;;;1.80;0.53;;;18.10;1.00;;;;;;5019299;28;20182;-87
2022/09/06 08:11:36;;;;;;;1.70;0.40;;;18.10;1.00;;;;;;5036107;28;20427;-91
2022/09/06 08:14:04;;;;;;;1.03;0.40;;;18.30;1.00;;;;;;5034765;28;20410;-90
2022/09/06 08:16:32;;;;;;;2.40;0.80;;;18.70;1.00;;;;;;5018611;28;20462;-89
2022/09/06 08:18:59;;;;;;;1.30;0.43;;;18.70;1.00;;;;;;5033916;28;20420;-93
2022/09/06 08:21:27;;;;;;;5.43;0.70;;;18.40;1.00;;;;;;5016400;28;20834;-89
2022/09/06 08:23:59;;;;;;;0.73;0.47;;;18.10;1.00;;;;;;5020327;28;20498;-88
2022/09/06 08:26:26;;;;;;;1.67;0.73;;;18.00;1.00;;;;;;5020551;28;20420;-89
2022/09/06 08:28:53;;;;;;;0.60;0.30;;;18.10;1.00;;;;;;5020643;28;20412;-90
2022/09/06 08:31:19;;;;;;;0.60;0.30;;;17.90;1.00;;;;;;5021694;28;20423;-89
2022/09/06 08:33:46;;;;;;;1.20;0.40;;;18.00;1.00;;;;;;5020684;28;20404;-91
2022/09/06 08:36:13;;;;;;;0.90;0.33;;;17.90;1.00;;;;;;5020519;28;20181;-88
2022/09/06 08:38:39;;;;;;;3.50;0.60;;;17.80;1.00;;;;;;5019622;28;20402;-91
2022/09/06 08:41:10;;;;;;;1.33;0.33;;;17.90;1.00;;;;;;5020258;28;20426;-92
2022/09/06 08:43:37;;;;;;;2.60;0.20;;;17.90;1.00;;;;;;5020300;28;20575;-92
2022/09/06 08:46:04;;;;;;;0.70;0.20;;;17.90;1.00;;;;;;5020607;28;20418;-90
2022/09/06 08:48:38;;;;;;;1.50;0.50;;;17.90;1.00;;;;;;5020156;28;20856;-89
2022/09/06 08:51:36;;;;;;;1.47;0.50;;;17.90;1.00;;;;;;5019050;28;20463;-92
2022/09/06 08:54:37;;;;;;;1.00;0.80;;;17.80;1.00;;;;;;5037277;28;20418;-89
2022/09/06 08:57:12;;;;;;;2.10;0.60;;;17.70;1.00;;;;;;5023595;28;20422;-91
2022/09/06 08:59:40;;;;;;;1.73;0.20;;;17.70;1.00;;;;;;5021267;28;20434;-91
2022/09/06 09:02:12;;;;;;;0.80;0.27;;;17.70;1.00;;;;;;5020961;28;21009;-88
2022/09/06 09:04:44;;;;;;;0.90;0.30;;;17.60;1.00;;;;;;5039382;28;20513;-89
2022/09/06 09:07:24;;;;;;;1.30;0.70;;;17.60;1.00;;;;;;5021250;28;20924;-88
2022/09/06 09:09:53;;;;;;;1.00;0.50;;;17.60;1.00;;;;;;5020789;28;20450;-94
2022/09/06 09:12:22;;;;;;;1.23;0.43;;;17.70;1.00;;;;;;5038228;28;20821;-93
2022/09/06 09:15:00;;;;;;;1.03;0.30;;;17.80;1.00;;;;;;5021772;28;20422;-88
2022/09/06 09:17:30;;;;;;;1.30;0.47;;;17.80;1.00;;;;;;5019419;28;20464;-91
2022/09/06 09:19:55;;;;;;;1.33;0.50;;;17.80;1.00;;;;;;5039927;28;20414;-89
2022/09/06 09:22:23;;;;;;;2.83;0.40;;;17.80;1.00;;;;;;5023982;28;20418;-94
2022/09/06 09:24:50;;;;;;;3.00;0.87;;;17.80;1.00;;;;;;5026458;28;20215;-91
2022/09/06 09:27:20;;;;;;;1.03;0.33;;;17.80;1.00;;;;;;5041990;28;20899;-90
2022/09/06 09:29:55;;;;;;;0.90;0.50;;;17.70;1.00;;;;;;5023404;28;20933;-89
2022/09/06 09:32:33;;;;;;;1.27;0.50;;;17.70;1.00;;;;;;5040432;28;20427;-92
2022/09/06 09:35:19;;;;;;;3.20;1.00;;;17.60;1.00;;;;;;5037579;28;20833;-88
2022/09/06 09:37:46;;;;;;;1.30;0.57;;;17.60;1.00;;;;;;5037058;28;20956;-89
2022/09/06 09:40:24;;;;;;;1.23;0.37;;;17.70;1.00;;;;;;5036898;28;20935;-92
2022/09/06 09:42:50;;;;;;;1.10;0.40;;;17.70;1.00;;;;;;5035883;28;20420;-90
2022/09/06 09:45:28;;;;;;;1.20;1.00;;;17.70;1.00;;;;;;5019767;28;20476;-89
2022/09/06 09:47:53;;;;;;;1.80;0.57;;;17.70;1.00;;;;;;5036814;28;20412;-88
2022/09/06 09:50:27;;;;;;;2.20;0.40;;;17.80;1.00;;;;;;5038297;28;20518;-95
2022/09/06 09:52:53;;;;;;;0.60;0.40;;;17.80;1.00;;;;;;5018184;28;20185;-92
2022/09/06 09:55:28;;;;;;;0.70;0.50;;;18.00;1.00;;;;;;5019037;28;20422;-90
2022/09/06 09:57:54;;;;;;;1.10;0.57;;;17.90;1.00;;;;;;5019170;28;21005;-95
2022/09/06 10:00:38;;;;;;;2.73;0.30;;;17.80;1.00;;;;;;5020996;28;20430;-91
2022/09/06 10:03:16;;;;;;;2.87;0.90;;;17.80;1.00;;;;;;5037376;28;20456;-92
2022/09/06 10:05:59;;;;;;;2.03;0.50;;;17.80;1.00;;;;;;5035906;28;20450;-93
2022/09/06 10:08:29;;;;;;;2.40;0.33;;;18.00;1.00;;;;;;5036426;28;20395;-93
2022/09/06 10:10:55;;;;;;;1.43;1.07;;;18.00;1.00;;;;;;5035262;28;20441;-93
2022/09/06 10:13:25;;;;;;;3.00;0.70;;;18.10;1.00;;;;;;5018016;28;20424;-95
2022/09/06 10:15:52;;;;;;;0.90;0.20;;;18.20;1.00;;;;;;5035907;28;20222;-93
2022/09/06 10:18:39;;;;;;;0.80;0.30;;;18.40;1.00;;;;;;5018862;28;20435;-93
2022/09/06 10:21:09;;;;;;;1.20;0.37;;;18.40;1.00;;;;;;5036923;28;20909;-92
2022/09/06 10:23:46;;;;;;;2.43;0.63;;;18.40;1.00;;;;;;5022358;28;20507;-93
2022/09/06 10:26:26;;;;;;;1.93;0.50;;;18.40;1.00;;;;;;5041181;28;20407;-91
2022/09/06 10:29:02;;;;;;;0.93;0.20;;;18.60;1.00;;;;;;5020914;28;21038;-93
2022/09/06 10:31:57;;;;;;;2.27;0.40;;;18.70;1.00;;;;;;5020072;28;20482;-93
2022/09/06 10:34:42;;;;;;;2.50;0.60;;;18.60;1.00;;;;;;5019848;28;20497;-93
2022/09/06 10:37:41;;;;;;;0.63;0.30;;;18.70;1.00;;;;;;5038978;28;20514;-95
2022/09/06 10:40:36;;;;;;;1.37;0.43;;;18.80;1.00;;;;;;5020678;28;20424;-95
2022/09/06 10:43:03;;;;;;;3.60;0.50;;;18.80;1.00;;;;;;5012485;28;20493;-92
2022/09/06 10:45:45;;;;;;;1.30;0.40;;;18.80;1.00;;;;;;5017712;28;20428;-94
2022/09/06 10:48:26;;;;;;;1.00;0.33;;;18.80;1.00;;;;;;5018051;28;20421;-91
2022/09/06 10:51:20;;;;;;;2.53;0.70;;;18.90;1.00;;;;;;5011541;28;20413;-91
2022/09/06 10:54:09;;;;;;;1.60;0.43;;;19.00;1.00;;;;;;5034251;28;20426;-91
2022/09/06 10:56:48;;;;;;;1.93;0.30;;;19.20;1.00;;;;;;5010451;28;20413;-93
2022/09/06 10:59:22;;;;;;;1.77;0.60;;;19.20;1.00;;;;;;5017997;28;20926;-93
2022/09/06 11:02:00;;;;;;;1.93;0.67;;;19.30;1.00;;;;;;5018035;28;20424;-93
2022/09/06 11:04:37;;;;;;;3.07;0.97;;;19.40;1.00;;;;;;5017834;28;20551;-92
2022/09/06 11:07:15;;;;;;;1.10;0.73;;;19.30;1.00;;;;;;5017406;28;20924;-92
2022/09/06 11:09:47;;;;;;;0.93;0.20;;;19.40;1.00;;;;;;5017529;28;20428;-92
2022/09/06 11:12:38;;;;;;;3.63;0.47;;;19.50;1.00;;;;;;5017912;28;21003;-89
2022/09/06 11:15:07;;;;;;;1.90;0.83;;;19.50;1.00;;;;;;5017628;28;21002;-91
2022/09/06 11:17:59;;;;;;;1.30;0.67;;;19.40;1.00;;;;;;5017063;28;20504;-91
2022/09/06 11:20:40;;;;;;;3.17;0.70;;;19.50;1.00;;;;;;5034067;28;20755;-92
2022/09/06 11:23:18;;;;;;;1.57;0.87;;;19.50;1.00;;;;;;5017188;28;20457;-92
2022/09/06 11:26:02;;;;;;;0.87;0.27;;;19.50;1.00;;;;;;5025977;28;20455;-93
2022/09/06 11:28:51;;;;;;;0.83;0.70;;;19.50;1.00;;;;;;5033818;28;20950;-94
2022/09/06 11:31:32;;;;;;;0.87;0.23;;;19.60;1.00;;;;;;5017260;28;20432;-90
2022/09/06 11:34:08;;;;;;;0.90;0.40;;;19.60;1.00;;;;;;5017509;28;20424;-92
2022/09/06 11:36:44;;;;;;;0.50;0.20;;;19.70;1.00;;;;;;5035507;28;20425;-92
2022/09/06 11:39:23;;;;;;;1.00;0.30;;;19.60;1.00;;;;;;5017182;28;20765;-91
2022/09/06 11:41:49;;;;;;;1.30;0.40;;;19.60;1.00;;;;;;5017133;28;20417;-94
2022/09/06 11:44:51;;;;;;;1.17;0.30;;;19.80;1.00;;;;;;5016570;28;20466;-92
2022/09/06 11:47:37;;;;;;;1.17;0.50;;;19.80;1.00;;;;;;5034393;28;20169;-94
2022/09/06 11:50:44;;;;;;;0.70;0.30;;;19.80;1.00;;;;;;5034318;28;20414;-92
2022/09/06 11:53:16;;;;;;;1.40;0.33;;;20.00;1.00;;;;;;5016866;28;20864;-92
2022/09/06 11:55:58;;;;;;;0.67;0.30;;;20.00;1.00;;;;;;5034972;28;20907;-90
2022/09/06 11:58:38;;;;;;;3.67;0.50;;;20.00;1.00;;;;;;5020115;28;20411;-91
2022/09/06 12:01:17;;;;;;;0.97;0.30;;;19.90;1.00;;;;;;5020441;28;20427;-92
2022/09/06 12:03:52;;;;;;;1.50;0.40;;;19.90;1.00;;;;;;5020322;28;20550;-93
2022/09/06 12:06:20;;;;;;;0.77;0.37;;;20.00;1.00;;;;;;5021058;28;20429;-93
2022/09/06 12:08:47;;;;;;;0.70;0.40;;;20.00;1.00;;;;;;5020552;28;20437;-92
2022/09/06 12:11:43;;;;;;;1.17;0.53;;;20.10;1.00;;;;;;5020728;28;20436;-92
2022/09/06 12:14:35;;;;;;;1.13;0.20;;;20.10;1.00;;;;;;5020444;28;21005;-92
2022/09/06 12:17:03;;;;;;;1.50;0.50;;;20.10;1.00;;;;;;5019890;28;20495;-88
2022/09/06 12:19:48;;;;;;;2.30;0.70;;;20.10;1.00;;;;;;5038490;28;20411;-92
2022/09/06 12:22:28;;;;;;;0.80;0.30;;;20.10;1.00;;;;;;5019662;28;20423;-91
2022/09/06 12:25:39;;;;;;;1.73;0.50;;;20.20;1.00;;;;;;5036534;28;21003;-89
2022/09/06 12:28:11;;;;;;;2.07;0.57;;;20.30;1.00;;;;;;4961992;28;20426;-91
2022/09/06 12:30:43;;;;;;;1.00;0.57;;;20.40;1.00;;;;;;4961933;28;20425;-94
2022/09/06 12:33:30;;;;;;;1.83;0.80;;;20.60;1.00;;;;;;4990639;28;20463;-91
2022/09/06 12:36:17;;;;;;;1.73;0.50;;;21.00;1.00;;;;;;5019772;28;20427;-89
2022/09/06 12:39:00;;;;;;;1.93;1.10;;;21.30;1.00;;;;;;5020175;28;20574;-91
2022/09/06 12:41:29;;;;;;;0.40;0.20;;;21.20;1.00;;;;;;5037537;28;20577;-88
2022/09/06 12:43:57;;;;;;;1.53;0.70;;;21.20;1.00;;;;;;5018160;28;20480;-88
2022/09/06 12:46:24;;;;;;;1.93;0.50;;;21.20;1.00;;;;;;5035768;28;20410;-89
2022/09/06 12:49:07;;;;;;;0.70;0.40;;;21.00;1.00;;;;;;5018069;28;20522;-89
2022/09/06 12:51:33;;;;;;;2.07;0.43;;;20.80;1.00;;;;;;5033968;28;20450;-89
2022/09/06 12:54:04;;;;;;;0.87;0.30;;;20.70;1.00;;;;;;5035615;28;20444;-90
2022/09/06 12:56:33;;;;;;;0.93;0.33;;;20.50;1.00;;;;;;5017554;28;20950;-89
2022/09/06 12:59:15;;;;;;;1.47;0.47;;;20.40;1.00;;;;;;5035424;28;20509;-89
2022/09/06 13:01:48;;;;;;;2.10;0.57;;;20.30;1.00;;;;;;5006207;28;20429;-89
2022/09/06 13:04:22;;;;;;;1.23;0.70;;;20.20;1.00;;;;;;5014343;28;20574;-88
2022/09/06 13:06:48;;;;;;;1.50;0.30;;;20.10;1.00;;;;;;5017120;28;20503;-89
2022/09/06 13:09:17;;;;;;;1.33;0.73;;;20.00;1.00;;;;;;5016498;28;20521;-89
2022/09/06 13:11:49;;;;;;;0.70;0.40;;;19.90;1.00;;;;;;5017580;28;20559;-88
2022/09/06 13:14:28;;;;;;;1.77;1.00;;;19.80;1.00;;;;;;5017500;28;20466;-87
2022/09/06 13:16:57;;;;;;;0.93;0.30;;;19.80;1.00;;;;;;5017157;28;21028;-89